createdAt,value
2018-06-10T00:00:51.706Z,50.36
2018-06-10T00:03:19.704Z,49.69
2018-06-10T00:05:47.736Z,50.33
2018-06-10T00:08:15.740Z,49.92
2018-06-10T00:10:43.798Z,50.15
2018-06-10T00:13:11.803Z,50.77
2018-06-10T00:15:39.834Z,50.57
2018-06-10T00:18:07.853Z,49.47
2018-06-10T00:20:35.885Z,49.70
2018-06-10T00:23:03.915Z,49.70
2018-06-10T00:25:31.930Z,48.74
2018-06-10T00:27:59.987Z,48.83
2018-06-10T00:30:28.091Z,48.78
2018-06-10T00:32:56.132Z,49.96
2018-06-10T00:35:24.177Z,50.73
2018-06-10T00:37:52.245Z,49.95
2018-06-10T00:40:20.316Z,50.98
2018-06-10T00:42:48.343Z,51.06
2018-06-10T00:45:16.353Z,51.56
2018-06-10T00:47:44.413Z,51.20
2018-06-10T00:50:12.542Z,51.78
2018-06-10T00:52:40.586Z,51.89
2018-06-10T00:55:08.624Z,51.96
2018-06-10T00:57:36.685Z,52.17
2018-06-10T01:00:04.787Z,51.91
2018-06-10T01:02:32.839Z,52.06
2018-06-10T01:05:00.899Z,51.00
2018-06-10T01:07:28.913Z,51.12
2018-06-10T01:09:57.006Z,51.36
2018-06-10T01:12:25.036Z,52.03
2018-06-10T01:14:53.061Z,53.25
2018-06-10T01:17:21.117Z,53.67
2018-06-10T01:19:49.180Z,53.73
2018-06-10T01:22:17.264Z,54.42
2018-06-10T01:24:45.288Z,54.18
2018-06-10T01:27:13.341Z,54.01
2018-06-10T01:29:41.382Z,54.15
2018-06-10T01:32:09.400Z,54.68
2018-06-10T01:34:37.400Z,53.89
2018-06-10T01:37:05.481Z,53.28
2018-06-10T01:39:33.510Z,54.05
2018-06-10T01:42:01.555Z,54.19
2018-06-10T01:44:29.554Z,54.93
2018-06-10T01:46:57.577Z,55.08
2018-06-10T01:49:25.625Z,55.17
2018-06-10T01:51:53.630Z,54.11
2018-06-10T01:54:21.677Z,53.88
2018-06-10T01:56:49.727Z,55.24
2018-06-10T01:59:17.760Z,54.74
2018-06-10T02:01:45.747Z,54.33
2018-06-10T02:04:13.784Z,54.35
2018-06-10T02:06:41.800Z,54.48
2018-06-10T02:09:09.861Z,54.74
2018-06-10T02:11:37.871Z,54.80
2018-06-10T02:14:06.034Z,54.96
2018-06-10T02:16:34.077Z,55.91
2018-06-10T02:19:02.144Z,55.81
2018-06-10T02:21:30.156Z,55.41
2018-06-10T02:23:58.260Z,56.20
2018-06-10T02:26:26.289Z,56.23
2018-06-10T02:28:54.349Z,56.19
2018-06-10T02:31:22.369Z,56.62
2018-06-10T02:33:50.440Z,56.46
2018-06-10T02:36:18.510Z,56.27
2018-06-10T02:38:46.596Z,56.83
2018-06-10T02:41:14.693Z,56.84
2018-06-10T02:43:42.741Z,57.04
2018-06-10T02:46:10.777Z,56.20
2018-06-10T02:48:38.830Z,56.33
2018-06-10T02:51:06.872Z,56.39
2018-06-10T02:53:34.946Z,56.97
2018-06-10T02:56:02.983Z,57.12
2018-06-10T02:58:31.030Z,57.86
2018-06-10T03:00:59.085Z,57.43
2018-06-10T03:03:27.136Z,57.27
2018-06-10T03:05:55.186Z,56.76
2018-06-10T03:08:23.203Z,57.62
2018-06-10T03:10:51.250Z,58.21
2018-06-10T03:13:20.527Z,58.09
2018-06-10T03:15:48.594Z,59.18
2018-06-10T03:18:16.631Z,59.54
2018-06-10T03:20:44.641Z,60.35
2018-06-10T03:23:12.701Z,60.58
2018-06-10T03:25:40.717Z,59.99
2018-06-10T03:28:08.784Z,60.35
2018-06-10T03:30:36.833Z,59.70
2018-06-10T03:33:04.908Z,59.72
2018-06-10T03:35:32.985Z,59.06
2018-06-10T03:38:01.017Z,60.05
2018-06-10T03:40:29.068Z,60.41
2018-06-10T03:42:57.088Z,60.01
2018-06-10T03:45:25.098Z,60.25
2018-06-10T03:47:53.132Z,59.14
2018-06-10T03:50:21.169Z,60.02
2018-06-10T03:52:49.193Z,61.00
2018-06-10T03:55:17.241Z,61.35
2018-06-10T03:57:45.293Z,61.17
2018-06-10T04:00:13.298Z,62.38
2018-06-10T04:02:41.317Z,62.70
2018-06-10T04:05:09.373Z,62.15
2018-06-10T04:07:37.405Z,62.18
2018-06-10T04:10:05.490Z,61.14
2018-06-10T04:12:33.513Z,60.87
2018-06-10T04:15:01.566Z,60.54
2018-06-10T04:17:29.632Z,61.49
2018-06-10T04:19:57.683Z,60.71
2018-06-10T04:22:25.726Z,61.91
2018-06-10T04:24:53.838Z,61.57
2018-06-10T04:27:21.865Z,62.66
2018-06-10T04:29:49.902Z,63.45
2018-06-10T04:32:17.960Z,63.61
2018-06-10T04:34:46.022Z,64.55
2018-06-10T04:37:14.034Z,66.26
2018-06-10T04:39:42.204Z,67.18
2018-06-10T04:42:10.238Z,67.42
2018-06-10T04:44:38.261Z,68.51
2018-06-10T04:47:06.369Z,70.07
2018-06-10T04:49:34.508Z,71.75
2018-06-10T04:52:02.529Z,71.26
2018-06-10T04:54:30.509Z,71.34
2018-06-10T04:56:58.602Z,72.85
2018-06-10T04:59:26.613Z,72.91
2018-06-10T05:01:54.705Z,73.13
2018-06-10T05:04:22.718Z,72.01
2018-06-10T05:06:51.046Z,72.09
2018-06-10T05:09:19.133Z,73.15
2018-06-10T05:11:47.166Z,74.29
2018-06-10T05:14:15.226Z,74.01
2018-06-10T05:16:43.280Z,73.73
2018-06-10T05:19:11.353Z,73.84
2018-06-10T05:21:39.378Z,72.50
2018-06-10T05:24:07.453Z,72.50
2018-06-10T05:26:35.482Z,71.86
2018-06-10T05:29:03.510Z,72.67
2018-06-10T05:31:31.609Z,72.06
2018-06-10T05:33:59.619Z,71.04
2018-06-10T05:36:27.712Z,71.13
2018-06-10T05:38:55.766Z,69.68
2018-06-10T05:41:23.825Z,69.54
2018-06-10T05:43:51.829Z,69.10
2018-06-10T05:46:19.918Z,68.21
2018-06-10T05:48:47.982Z,68.39
2018-06-10T05:51:16.073Z,68.22
2018-06-10T05:53:44.110Z,68.15
2018-06-10T05:56:12.324Z,68.92
2018-06-10T05:58:40.352Z,69.78
2018-06-10T06:01:08.594Z,69.54
2018-06-10T06:03:36.569Z,69.84
2018-06-10T06:06:05.068Z,69.24
2018-06-10T06:08:33.169Z,69.17
2018-06-10T06:11:01.278Z,68.50
2018-06-10T06:13:29.305Z,68.14
2018-06-10T06:15:57.360Z,68.70
2018-06-10T06:18:25.420Z,68.60
2018-06-10T06:20:53.456Z,69.15
2018-06-10T06:23:21.489Z,68.76
2018-06-10T06:25:49.505Z,70.89
2018-06-10T06:28:17.545Z,71.08
2018-06-10T06:30:45.622Z,70.28
2018-06-10T06:33:13.651Z,70.38
2018-06-10T06:35:41.680Z,71.05
2018-06-10T06:38:09.820Z,70.64
2018-06-10T06:40:37.868Z,70.89
2018-06-10T06:43:05.886Z,71.83
2018-06-10T06:45:33.901Z,71.78
2018-06-10T06:48:01.951Z,71.29
2018-06-10T06:50:30.001Z,70.37
2018-06-10T06:52:58.029Z,71.27
2018-06-10T06:55:26.073Z,72.02
2018-06-10T06:57:54.161Z,72.41
2018-06-10T07:00:22.174Z,71.13
2018-06-10T07:02:50.189Z,71.02
2018-06-10T07:05:18.221Z,69.75
2018-06-10T07:07:46.261Z,69.68
2018-06-10T07:10:14.289Z,68.76
2018-06-10T07:12:42.308Z,69.18
2018-06-10T07:15:10.327Z,68.70
2018-06-10T07:17:38.361Z,70.12
2018-06-10T07:20:06.498Z,69.59
2018-06-10T07:22:34.489Z,70.03
2018-06-10T07:25:02.513Z,71.53
2018-06-10T07:27:30.573Z,72.02
2018-06-10T07:29:58.712Z,72.66
2018-06-10T07:32:26.718Z,72.45
2018-06-10T07:34:54.998Z,72.67
2018-06-10T07:37:23.057Z,71.61
2018-06-10T07:39:51.246Z,70.06
2018-06-10T07:42:19.283Z,69.62
2018-06-10T07:44:47.381Z,70.10
2018-06-10T07:47:15.398Z,67.33
2018-06-10T07:49:43.418Z,67.41
2018-06-10T07:52:11.429Z,67.75
2018-06-10T07:54:39.534Z,69.37
2018-06-10T07:57:07.629Z,69.14
2018-06-10T07:59:35.805Z,69.92
2018-06-10T08:02:04.048Z,69.17
2018-06-10T08:04:32.092Z,69.37
2018-06-10T08:07:00.155Z,69.61
2018-06-10T08:09:28.459Z,69.78
2018-06-10T08:11:56.555Z,68.52
2018-06-10T08:14:24.545Z,67.74
2018-06-10T08:16:52.524Z,66.56
2018-06-10T08:19:20.548Z,66.49
2018-06-10T08:21:48.716Z,66.29
2018-06-10T08:24:16.764Z,65.09
2018-06-10T08:26:44.806Z,65.02
2018-06-10T08:29:12.934Z,66.18
2018-06-10T08:31:40.916Z,64.21
2018-06-10T08:34:08.983Z,63.68
2018-06-10T08:36:37.027Z,62.99
2018-06-10T08:39:08.108Z,63.12
2018-06-10T08:41:36.304Z,62.95
2018-06-10T08:44:04.397Z,63.04
2018-06-10T08:46:32.418Z,64.46
2018-06-10T08:49:00.505Z,63.81
2018-06-10T08:51:28.573Z,64.48
2018-06-10T08:53:56.581Z,64.26
2018-06-10T08:56:24.620Z,63.79
2018-06-10T08:58:52.693Z,64.05
2018-06-10T09:01:20.810Z,62.77
2018-06-10T09:03:48.809Z,62.02
2018-06-10T09:06:16.829Z,62.80
2018-06-10T09:08:44.885Z,62.16
2018-06-10T09:11:12.877Z,61.04
2018-06-10T09:13:40.937Z,61.08
2018-06-10T09:16:08.995Z,59.62
2018-06-10T09:18:37.100Z,60.80
2018-06-10T09:21:05.149Z,60.94
2018-06-10T09:23:33.270Z,60.59
2018-06-10T09:26:01.253Z,59.78
2018-06-10T09:28:29.345Z,61.41
2018-06-10T09:30:57.381Z,61.79
2018-06-10T09:33:25.467Z,62.29
2018-06-10T09:35:53.468Z,63.82
2018-06-10T09:38:21.572Z,65.19
2018-06-10T09:40:49.596Z,67.49
2018-06-10T09:43:17.657Z,67.60
2018-06-10T09:45:45.680Z,68.20
2018-06-10T09:48:13.775Z,68.80
2018-06-10T09:50:41.805Z,69.19
2018-06-10T09:53:09.822Z,68.85
2018-06-10T09:55:37.965Z,69.60
2018-06-10T09:58:05.910Z,70.24
2018-06-10T10:00:33.884Z,69.14
2018-06-10T10:03:01.905Z,70.09
2018-06-10T10:05:29.941Z,69.88
2018-06-10T10:07:57.984Z,70.71
2018-06-10T10:10:26.009Z,70.36
2018-06-10T10:13:00.548Z,69.73
2018-06-10T10:15:28.561Z,68.82
2018-06-10T10:17:56.601Z,69.47
2018-06-10T10:20:24.646Z,71.14
2018-06-10T10:22:52.649Z,71.67
2018-06-10T10:25:20.714Z,72.04
2018-06-10T10:27:48.820Z,71.80
2018-06-10T10:30:16.840Z,71.06
2018-06-10T10:32:44.844Z,71.28
2018-06-10T10:35:12.837Z,72.06
2018-06-10T10:37:40.868Z,73.64
2018-06-10T10:40:08.918Z,74.02
2018-06-10T10:42:36.968Z,74.42
2018-06-10T10:45:05.309Z,75.86
2018-06-10T10:47:33.333Z,75.91
2018-06-10T10:50:01.342Z,76.41
2018-06-10T10:52:29.361Z,76.91
2018-06-10T10:54:57.429Z,77.81
2018-06-10T10:57:25.501Z,78.03
2018-06-10T10:59:53.504Z,78.28
2018-06-10T11:02:21.522Z,79.92
2018-06-10T11:04:49.553Z,80.80
2018-06-10T11:07:17.582Z,79.74
2018-06-10T11:09:45.655Z,80.53
2018-06-10T11:12:13.662Z,80.52
2018-06-10T11:14:41.672Z,81.60
2018-06-10T11:17:09.681Z,80.06
2018-06-10T11:19:37.693Z,80.21
2018-06-10T11:22:05.679Z,78.96
2018-06-10T11:24:33.661Z,76.49
2018-06-10T11:27:01.706Z,76.26
2018-06-10T11:29:29.794Z,74.93
2018-06-10T11:31:57.776Z,76.17
2018-06-10T11:34:25.820Z,73.11
2018-06-10T11:36:53.816Z,74.58
2018-06-10T11:39:21.841Z,75.20
2018-06-10T11:41:49.824Z,71.09
2018-06-10T11:44:18.045Z,71.09
2018-06-10T11:46:46.085Z,68.23
2018-06-10T11:49:14.072Z,67.90
2018-06-10T11:51:42.097Z,67.54
2018-06-10T11:54:10.149Z,64.98
2018-06-10T11:56:38.158Z,64.37
2018-06-10T11:59:06.217Z,63.07
2018-06-10T12:01:34.236Z,64.48
2018-06-10T12:04:02.273Z,64.81
2018-06-10T12:06:30.292Z,66.02
2018-06-10T12:08:58.344Z,66.58
2018-06-10T12:11:26.372Z,64.45
2018-06-10T12:13:54.400Z,64.70
2018-06-10T12:16:22.449Z,64.36
2018-06-10T12:18:50.526Z,64.12
2018-06-10T12:21:18.553Z,63.79
2018-06-10T12:23:46.584Z,62.40
2018-06-10T12:26:14.657Z,62.04
2018-06-10T12:28:42.728Z,59.44
2018-06-10T12:31:10.800Z,59.13
2018-06-10T12:33:38.807Z,55.98
2018-06-10T12:36:06.832Z,57.13
2018-06-10T12:38:34.866Z,56.19
2018-06-10T12:41:02.932Z,54.98
2018-06-10T12:43:30.965Z,56.16
2018-06-10T12:45:59.018Z,57.26
2018-06-10T12:48:27.266Z,55.19
2018-06-10T12:50:55.266Z,56.15
2018-06-10T12:53:23.326Z,55.54
2018-06-10T12:55:51.364Z,56.33
2018-06-10T12:58:19.385Z,56.35
2018-06-10T13:00:47.396Z,56.71
2018-06-10T13:03:15.424Z,55.31
2018-06-10T13:05:43.432Z,56.77
2018-06-10T13:08:11.428Z,55.57
2018-06-10T13:10:39.467Z,56.98
2018-06-10T13:13:07.412Z,56.83
2018-06-10T13:15:35.456Z,57.23
2018-06-10T13:18:03.473Z,58.10
2018-06-10T13:20:31.513Z,58.07
2018-06-10T13:22:59.584Z,56.59
2018-06-10T13:25:27.628Z,57.61
2018-06-10T13:27:55.647Z,55.90
2018-06-10T13:30:23.633Z,55.91
2018-06-10T13:32:51.708Z,55.48
2018-06-10T13:35:19.693Z,56.59
2018-06-10T13:37:47.688Z,55.93
2018-06-10T13:40:15.718Z,55.66
2018-06-10T13:42:43.757Z,54.73
2018-06-10T13:45:11.800Z,55.18
2018-06-10T13:47:39.849Z,54.80
2018-06-10T13:50:07.888Z,55.53
2018-06-10T13:52:35.964Z,56.36
2018-06-10T13:55:03.987Z,53.93
2018-06-10T13:57:32.376Z,53.69
2018-06-10T14:00:00.494Z,55.23
2018-06-10T14:02:28.644Z,53.30
2018-06-10T14:04:56.653Z,53.57
2018-06-10T14:07:24.653Z,51.29
2018-06-10T14:09:52.711Z,51.67
2018-06-10T14:12:20.729Z,49.96
2018-06-10T14:14:48.728Z,48.01
2018-06-10T14:17:16.754Z,48.52
2018-06-10T14:19:44.830Z,47.21
2018-06-10T14:22:12.856Z,47.96
2018-06-10T14:24:40.961Z,48.46
2018-06-10T14:27:08.994Z,48.71
2018-06-10T14:29:37.042Z,48.26
2018-06-10T14:32:05.093Z,49.46
2018-06-10T14:34:33.293Z,48.71
2018-06-10T14:37:01.318Z,49.13
2018-06-10T14:39:29.306Z,48.73
2018-06-10T14:41:57.364Z,49.39
2018-06-10T14:44:25.390Z,50.55
2018-06-10T14:46:53.405Z,51.19
2018-06-10T14:49:21.447Z,49.83
2018-06-10T14:51:49.493Z,50.91
2018-06-10T14:54:17.469Z,50.45
2018-06-10T14:56:45.513Z,50.58
2018-06-10T14:59:13.591Z,51.45
2018-06-10T15:01:41.589Z,53.21
2018-06-10T15:04:09.577Z,51.16
2018-06-10T15:06:37.637Z,50.62
2018-06-10T15:09:08.129Z,50.71
2018-06-10T15:11:36.320Z,50.33
2018-06-10T15:14:05.360Z,51.27
2018-06-10T15:16:33.569Z,51.02
2018-06-10T15:19:01.654Z,50.40
2018-06-10T15:21:29.694Z,50.19
2018-06-10T15:23:57.790Z,49.50
2018-06-10T15:26:25.849Z,50.74
2018-06-10T15:28:53.846Z,50.28
2018-06-10T15:31:22.237Z,51.22
2018-06-10T15:33:50.288Z,51.18
2018-06-10T15:36:18.308Z,51.90
2018-06-10T15:38:46.721Z,52.00
2018-06-10T15:41:14.780Z,51.47
2018-06-10T15:43:42.852Z,52.49
2018-06-10T15:46:10.904Z,53.91
2018-06-10T15:48:39.725Z,53.34
2018-06-10T15:51:07.805Z,54.42
2018-06-10T15:53:35.857Z,53.79
2018-06-10T15:56:03.907Z,53.80
2018-06-10T15:58:31.972Z,54.27
2018-06-10T16:01:00.955Z,54.61
2018-06-10T16:03:29.042Z,53.74
2018-06-10T16:05:57.045Z,54.62
2018-06-10T16:08:25.061Z,53.66
2018-06-10T16:10:53.074Z,53.22
2018-06-10T16:13:21.112Z,53.47
2018-06-10T16:15:49.120Z,53.73
2018-06-10T16:18:17.201Z,54.66
2018-06-10T16:20:45.273Z,53.82
2018-06-10T16:23:13.451Z,55.85
2018-06-10T16:25:41.448Z,56.67
2018-06-10T16:28:09.472Z,57.38
2018-06-10T16:30:37.455Z,57.74
2018-06-10T16:33:05.493Z,57.85
2018-06-10T16:35:33.544Z,57.69
2018-06-10T16:38:01.557Z,55.67
2018-06-10T16:40:29.608Z,55.80
2018-06-10T16:42:57.628Z,55.06
2018-06-10T16:45:25.644Z,55.26
2018-06-10T16:47:53.682Z,55.19
2018-06-10T16:50:21.709Z,54.42
2018-06-10T16:52:49.705Z,53.46
2018-06-10T16:55:17.721Z,53.76
2018-06-10T16:57:45.757Z,54.25
2018-06-10T17:00:13.818Z,53.72
2018-06-10T17:02:41.898Z,55.02
2018-06-10T17:05:09.921Z,54.57
2018-06-10T17:07:38.092Z,55.88
2018-06-10T17:10:06.093Z,55.75
2018-06-10T17:12:34.201Z,55.90
2018-06-10T17:15:02.270Z,56.13
2018-06-10T17:17:30.298Z,54.97
2018-06-10T17:19:58.321Z,55.03
2018-06-10T17:22:26.430Z,55.43
2018-06-10T17:24:54.489Z,55.56
2018-06-10T17:27:22.519Z,54.55
2018-06-10T17:29:50.537Z,55.72
2018-06-10T17:32:18.601Z,54.89
2018-06-10T17:34:46.682Z,54.82
2018-06-10T17:37:14.717Z,55.74
2018-06-10T17:39:42.821Z,56.08
2018-06-10T17:42:11.514Z,55.82
2018-06-10T17:44:39.815Z,57.67
2018-06-10T17:47:08.946Z,57.67
2018-06-10T17:49:37.003Z,57.62
2018-06-10T17:52:05.224Z,58.45
2018-06-10T17:54:33.345Z,59.00
2018-06-10T17:57:01.394Z,59.00
2018-06-10T17:59:29.480Z,58.19
2018-06-10T18:01:57.541Z,58.08
2018-06-10T18:04:25.565Z,58.76
2018-06-10T18:06:53.697Z,57.85
2018-06-10T18:09:21.709Z,58.61
2018-06-10T18:11:49.901Z,59.11
2018-06-10T18:14:17.980Z,59.87
2018-06-10T18:16:46.071Z,59.05
2018-06-10T18:19:14.307Z,59.56
2018-06-10T18:21:42.317Z,60.69
2018-06-10T18:24:10.398Z,60.25
2018-06-10T18:26:38.393Z,60.72
2018-06-10T18:29:06.402Z,61.72
2018-06-10T18:31:34.520Z,61.49
2018-06-10T18:34:02.567Z,62.78
2018-06-10T18:36:30.592Z,63.63
2018-06-10T18:38:58.625Z,63.71
2018-06-10T18:41:26.673Z,64.47
2018-06-10T18:43:54.676Z,65.60
2018-06-10T18:46:22.696Z,65.16
2018-06-10T18:48:50.868Z,65.02
2018-06-10T18:51:18.918Z,65.44
2018-06-10T18:53:46.917Z,65.97
2018-06-10T18:56:14.910Z,65.00
2018-06-10T18:58:42.964Z,66.18
2018-06-10T19:01:10.968Z,66.35
2018-06-10T19:03:39.086Z,65.70
2018-06-10T19:06:07.112Z,66.21
2018-06-10T19:08:35.160Z,65.74
2018-06-10T19:11:03.196Z,66.51
2018-06-10T19:13:31.226Z,65.62
2018-06-10T19:15:59.252Z,66.52
2018-06-10T19:18:27.385Z,66.25
2018-06-10T19:20:55.417Z,67.38
2018-06-10T19:23:23.508Z,66.53
2018-06-10T19:25:51.536Z,66.28
2018-06-10T19:28:19.648Z,66.27
2018-06-10T19:30:48.245Z,66.59
2018-06-10T19:33:16.289Z,66.83
2018-06-10T19:35:44.301Z,66.77
2018-06-10T19:38:12.316Z,68.02
2018-06-10T19:40:40.305Z,67.80
2018-06-10T19:43:08.348Z,68.19
2018-06-10T19:45:36.525Z,67.84
2018-06-10T19:48:05.138Z,67.57
2018-06-10T19:50:33.337Z,68.87
2018-06-10T19:53:01.321Z,68.69
2018-06-10T19:55:29.384Z,68.59
2018-06-10T19:57:57.440Z,69.08
2018-06-10T20:00:25.489Z,69.74
2018-06-10T20:02:53.565Z,71.04
2018-06-10T20:05:21.568Z,71.00
2018-06-10T20:07:49.658Z,72.07
2018-06-10T20:10:17.679Z,72.24
2018-06-10T20:12:45.790Z,71.77
2018-06-10T20:15:13.821Z,72.11
2018-06-10T20:17:42.059Z,71.86
2018-06-10T20:20:10.108Z,71.97
2018-06-10T20:22:38.605Z,72.60
2018-06-10T20:25:06.559Z,72.92
2018-06-10T20:27:34.617Z,72.50
2018-06-10T20:30:02.739Z,72.55
2018-06-10T20:32:30.715Z,73.14
2018-06-10T20:34:58.725Z,73.13
2018-06-10T20:37:26.853Z,73.50
2018-06-10T20:39:54.873Z,73.93
2018-06-10T20:42:22.996Z,73.77
2018-06-10T20:44:50.998Z,73.19
2018-06-10T20:47:19.074Z,73.76
2018-06-10T20:49:47.108Z,73.40
2018-06-10T20:52:15.105Z,73.85
2018-06-10T20:54:43.108Z,73.13
2018-06-10T20:57:11.209Z,72.09
2018-06-10T20:59:39.260Z,72.17
2018-06-10T21:02:07.282Z,72.39
2018-06-10T21:04:35.329Z,72.24
2018-06-10T21:07:03.385Z,72.13
2018-06-10T21:09:31.449Z,72.04
2018-06-10T21:11:59.480Z,72.49
2018-06-10T21:14:27.553Z,73.34
2018-06-10T21:16:55.548Z,72.79
2018-06-10T21:19:23.618Z,72.69
2018-06-10T21:21:51.605Z,72.20
2018-06-10T21:24:19.636Z,73.03
2018-06-10T21:26:47.676Z,73.20
2018-06-10T21:29:15.716Z,74.14
2018-06-10T21:31:43.716Z,72.66
2018-06-10T21:34:11.756Z,74.16
2018-06-10T21:36:39.773Z,73.82
2018-06-10T21:39:08.541Z,73.94
2018-06-10T21:41:36.755Z,74.29
2018-06-10T21:44:04.764Z,74.07
2018-06-10T21:46:32.785Z,73.51
2018-06-10T21:49:00.804Z,75.54
2018-06-10T21:51:28.896Z,74.16
2018-06-10T21:53:56.909Z,74.65
2018-06-10T21:56:24.932Z,74.60
2018-06-10T21:58:52.932Z,74.40
2018-06-10T22:01:20.928Z,74.28
2018-06-10T22:03:49.927Z,75.07
2018-06-10T22:06:17.917Z,74.01
2018-06-10T22:08:45.940Z,74.04
2018-06-10T22:11:13.969Z,74.60
2018-06-10T22:13:41.957Z,75.00
2018-06-10T22:16:10.049Z,75.58
2018-06-10T22:18:38.216Z,76.84
2018-06-10T22:21:06.262Z,76.33
2018-06-10T22:23:34.272Z,77.10
2018-06-10T22:26:02.359Z,77.71
2018-06-10T22:28:30.384Z,77.17
2018-06-10T22:30:58.432Z,77.58
2018-06-10T22:33:26.446Z,77.00
2018-06-10T22:35:54.468Z,77.32
2018-06-10T22:38:22.530Z,77.02
2018-06-10T22:40:50.520Z,76.60
2018-06-10T22:43:18.541Z,76.45
2018-06-10T22:45:46.560Z,76.44
2018-06-10T22:48:14.567Z,77.83
2018-06-10T22:50:42.590Z,77.15
2018-06-10T22:53:19.621Z,77.32
2018-06-10T22:55:47.652Z,77.85
2018-06-10T22:58:15.712Z,77.86
2018-06-10T23:00:43.788Z,77.26
2018-06-10T23:03:11.773Z,77.52
2018-06-10T23:05:39.802Z,78.56
2018-06-10T23:08:07.797Z,77.67
2018-06-10T23:10:35.906Z,79.17
2018-06-10T23:13:03.917Z,78.95
2018-06-10T23:15:31.942Z,79.71
2018-06-10T23:17:59.956Z,78.42
2018-06-10T23:20:27.977Z,79.28
2018-06-10T23:22:56.008Z,78.07
2018-06-10T23:25:24.022Z,78.54
2018-06-10T23:27:52.020Z,78.91
2018-06-10T23:30:20.040Z,78.77
2018-06-10T23:32:48.057Z,80.84
2018-06-10T23:35:16.059Z,79.79
2018-06-10T23:37:44.129Z,80.48
2018-06-10T23:40:12.131Z,80.48
2018-06-10T23:42:40.288Z,80.26
2018-06-10T23:47:47.764Z,79.73
2018-06-10T23:50:15.761Z,78.49
2018-06-10T23:52:43.902Z,78.20
2018-06-10T23:55:12.032Z,77.67
2018-06-10T23:57:40.135Z,77.74
